Bridgewater, Massachusetts
Current Conditions -  °F | °C
As of 10:52 PM on Saturday 22 Nov 2014 (Local Time) from KTAN Reporting Station
Clear Clear  
Wind Chill:   Ceiling: Unl
Heat Index:   Visibility: 10mi
Dew Point: -3°   Wind: 5mph
Humidity: 48%   Direction: 230°SW
Pressure: 30.1"   Gusts: 17mph
Location:  41.99°N, 70.98°W
Report Text: KTAN 230352Z AUTO 23004G15KT 10SM CLR 07/M03 A3010 RMK AO2 SLP193 T00721033
Loading
Personal Weather Stations






























Interactive Weather Map New forecast layout! Learn more

10-Day Weather Forecast

Advertisements
Track Severe Weather on mobile